Time;durP1;ratioP1;P1;durP2;ratioP2;P2;SDS_P1;SDS_P2;PMS_P1;PMS_P2;Temp;Humidity;BMP_temperature;BMP_pressure;BME280_temperature;BME280_humidity;BME280_pressure;Samples;Min_cycle;Max_cycle;Signal;HPM_P1;HPM_P2
2022/07/03 00:00:09;;;;;;;6.35;3.50;;;;;;;;;;5044403;28;20295;-72
2022/07/03 00:02:34;;;;;;;5.07;3.60;;;;;;;;;;5047845;28;20178;-71
2022/07/03 00:04:59;;;;;;;3.67;3.38;;;;;;;;;;5044881;28;20178;-71
2022/07/03 00:07:24;;;;;;;5.50;3.22;;;;;;;;;;5043208;28;20204;-71
2022/07/03 00:09:50;;;;;;;4.35;3.85;;;;;;;;;;5049574;28;20181;-71
2022/07/03 00:12:15;;;;;;;6.47;3.78;;;;;;;;;;5052127;28;20781;-71
2022/07/03 00:14:40;;;;;;;4.50;4.10;;;;;;;;;;5048454;28;20748;-71
2022/07/03 00:17:05;;;;;;;4.40;4.00;;;;;;;;;;5044567;28;20233;-72
2022/07/03 00:19:31;;;;;;;5.35;3.97;;;;;;;;;;5044433;28;20170;-71
2022/07/03 00:21:57;;;;;;;4.75;4.28;;;;;;;;;;5041443;28;20182;-71
2022/07/03 00:24:28;;;;;;;5.13;3.92;;;;;;;;;;5035261;28;20591;-71
2022/07/03 00:26:54;;;;;;;5.53;3.95;;;;;;;;;;5034636;28;20700;-71
2022/07/03 00:29:20;;;;;;;4.55;3.85;;;;;;;;;;5033423;28;20268;-71
2022/07/03 00:31:46;;;;;;;4.45;3.92;;;;;;;;;;5045606;28;20204;-71
2022/07/03 00:34:14;;;;;;;6.15;4.10;;;;;;;;;;5052791;28;20280;-71
2022/07/03 00:36:40;;;;;;;7.85;5.70;;;;;;;;;;5048285;28;20170;-71
2022/07/03 00:39:05;;;;;;;5.03;3.78;;;;;;;;;;5050560;28;20542;-71
2022/07/03 00:41:32;;;;;;;5.00;4.05;;;;;;;;;;5048160;28;20205;-71
2022/07/03 00:43:58;;;;;;;4.55;3.72;;;;;;;;;;5050764;28;20177;-71
2022/07/03 00:46:24;;;;;;;6.85;4.43;;;;;;;;;;5051375;28;20170;-70
2022/07/03 00:48:50;;;;;;;4.97;3.72;;;;;;;;;;5050880;28;20204;-71
2022/07/03 00:51:17;;;;;;;8.13;4.30;;;;;;;;;;5049671;28;20182;-70
2022/07/03 00:53:45;;;;;;;5.38;3.92;;;;;;;;;;5050849;28;20228;-71
2022/07/03 00:56:13;;;;;;;4.70;4.07;;;;;;;;;;5051883;28;20666;-71
2022/07/03 00:58:38;;;;;;;5.07;3.70;;;;;;;;;;5050199;28;20631;-71
2022/07/03 01:01:03;;;;;;;4.97;4.35;;;;;;;;;;5051387;28;20257;-71
2022/07/03 01:03:31;;;;;;;6.13;4.10;;;;;;;;;;5051009;28;20208;-71
2022/07/03 01:05:59;;;;;;;6.45;4.13;;;;;;;;;;5033094;28;20589;-71
2022/07/03 01:08:27;;;;;;;3.63;3.33;;;;;;;;;;5036383;28;20202;-71
2022/07/03 01:11:03;;;;;;;3.92;3.30;;;;;;;;;;5045838;28;20177;-71
2022/07/03 01:13:38;;;;;;;6.43;4.03;;;;;;;;;;5041231;28;20591;-71
2022/07/03 01:16:04;;;;;;;5.00;3.60;;;;;;;;;;5027772;28;20763;-71
2022/07/03 01:18:47;;;;;;;3.90;3.30;;;;;;;;;;5044970;28;20257;-71
2022/07/03 01:21:31;;;;;;;4.13;3.58;;;;;;;;;;5046664;28;20178;-71
2022/07/03 01:24:09;;;;;;;5.70;3.88;;;;;;;;;;5050306;28;20184;-71
2022/07/03 01:26:36;;;;;;;3.92;3.17;;;;;;;;;;5046769;28;20259;-71
2022/07/03 01:29:07;;;;;;;5.43;3.20;;;;;;;;;;5039899;28;20214;-71
2022/07/03 01:31:33;;;;;;;4.85;4.15;;;;;;;;;;5046632;28;20235;-71
2022/07/03 01:33:58;;;;;;;6.35;4.93;;;;;;;;;;5032592;28;20205;-71
2022/07/03 01:36:25;;;;;;;5.50;4.35;;;;;;;;;;5035926;28;20174;-71
2022/07/03 01:38:50;;;;;;;3.55;3.25;;;;;;;;;;5029799;28;20197;-71
2022/07/03 01:41:15;;;;;;;4.05;3.65;;;;;;;;;;5053173;28;20516;-71
2022/07/03 01:43:48;;;;;;;10.18;6.65;;;;;;;;;;5046478;28;20181;-71
2022/07/03 01:46:14;;;;;;;5.72;4.53;;;;;;;;;;5048781;28;20186;-71
2022/07/03 01:48:41;;;;;;;4.97;4.47;;;;;;;;;;5045910;28;20212;-70
2022/07/03 01:51:07;;;;;;;7.20;4.85;;;;;;;;;;5044474;28;20185;-71
2022/07/03 01:53:33;;;;;;;5.88;5.13;;;;;;;;;;5047215;28;20194;-71
2022/07/03 01:55:59;;;;;;;6.63;4.43;;;;;;;;;;5047024;28;20404;-71
2022/07/03 01:58:24;;;;;;;6.50;4.38;;;;;;;;;;5031177;28;20200;-71
2022/07/03 02:00:50;;;;;;;4.50;4.10;;;;;;;;;;5030070;28;20260;-71
2022/07/03 02:03:21;;;;;;;6.03;4.67;;;;;;;;;;5047522;28;20184;-71
2022/07/03 02:05:47;;;;;;;5.53;4.88;;;;;;;;;;5048748;28;20414;-71
2022/07/03 02:08:26;;;;;;;7.93;5.50;;;;;;;;;;5043100;28;20240;-71
2022/07/03 02:11:09;;;;;;;7.13;5.90;;;;;;;;;;5030975;28;20182;-71
2022/07/03 02:13:37;;;;;;;6.75;6.05;;;;;;;;;;5049686;28;20221;-71
2022/07/03 02:16:03;;;;;;;6.18;5.05;;;;;;;;;;5048011;28;20173;-71
2022/07/03 02:18:29;;;;;;;6.55;5.40;;;;;;;;;;5049017;28;20200;-71
2022/07/03 02:21:07;;;;;;;5.93;5.30;;;;;;;;;;5029129;28;20185;-71
2022/07/03 02:23:35;;;;;;;7.13;5.35;;;;;;;;;;5046955;28;20231;-71
2022/07/03 02:26:03;;;;;;;5.13;4.63;;;;;;;;;;5048272;28;20181;-71
2022/07/03 02:29:01;;;;;;;4.57;4.18;;;;;;;;;;5031304;23;20296;-74
2022/07/03 02:31:27;;;;;;;4.25;3.90;;;;;;;;;;4975272;28;20196;-74
2022/07/03 02:33:56;;;;;;;5.32;4.13;;;;;;;;;;5030105;28;20206;-74
2022/07/03 02:36:21;;;;;;;5.20;3.88;;;;;;;;;;5012712;28;20602;-74
2022/07/03 02:38:51;;;;;;;5.25;3.90;;;;;;;;;;5028545;28;20259;-74
2022/07/03 02:41:36;;;;;;;4.32;3.60;;;;;;;;;;5030212;28;20175;-74
2022/07/03 02:44:04;;;;;;;5.65;3.92;;;;;;;;;;5023013;28;20273;-73
2022/07/03 02:46:48;;;;;;;5.28;3.60;;;;;;;;;;5028930;28;20205;-73
2022/07/03 02:49:14;;;;;;;7.20;3.40;;;;;;;;;;5023885;28;20576;-73
2022/07/03 02:51:40;;;;;;;5.83;3.20;;;;;;;;;;5028420;28;20174;-73
2022/07/03 02:54:11;;;;;;;5.72;3.05;;;;;;;;;;5029815;28;20505;-73
2022/07/03 02:56:51;;;;;;;5.40;2.80;;;;;;;;;;5028704;28;20232;-73
2022/07/03 02:59:35;;;;;;;3.60;2.83;;;;;;;;;;5029086;28;20190;-73
2022/07/03 03:02:07;;;;;;;5.30;2.70;;;;;;;;;;5030188;28;20229;-73
2022/07/03 03:04:32;;;;;;;4.32;3.17;;;;;;;;;;5028601;28;20261;-73
2022/07/03 03:07:04;;;;;;;2.42;2.13;;;;;;;;;;5023471;28;20266;-73
2022/07/03 03:09:39;;;;;;;3.75;2.97;;;;;;;;;;5023501;28;20206;-73
2022/07/03 03:12:05;;;;;;;2.63;2.35;;;;;;;;;;5023850;28;20227;-73
2022/07/03 03:14:38;;;;;;;2.72;2.53;;;;;;;;;;5025571;28;20202;-73
2022/07/03 03:17:05;;;;;;;2.88;2.53;;;;;;;;;;5029481;28;20166;-73
2022/07/03 03:19:34;;;;;;;5.15;3.22;;;;;;;;;;5028972;28;20260;-73
2022/07/03 03:22:18;;;;;;;3.95;2.85;;;;;;;;;;5029867;28;20257;-73
2022/07/03 03:24:43;;;;;;;4.15;2.83;;;;;;;;;;5031017;28;20186;-73
2022/07/03 03:27:09;;;;;;;3.97;3.30;;;;;;;;;;5032035;28;20535;-73
2022/07/03 03:29:34;;;;;;;3.50;2.90;;;;;;;;;;5029171;28;20198;-73
2022/07/03 03:31:59;;;;;;;2.67;2.47;;;;;;;;;;5030091;28;20410;-73
2022/07/03 03:34:25;;;;;;;3.58;2.72;;;;;;;;;;5030607;28;20244;-73
2022/07/03 03:36:51;;;;;;;2.92;2.58;;;;;;;;;;5030554;28;20170;-73
2022/07/03 03:39:16;;;;;;;2.35;1.92;;;;;;;;;;5031497;28;20213;-73
2022/07/03 03:41:41;;;;;;;3.58;2.75;;;;;;;;;;5031680;28;20174;-73
2022/07/03 03:44:07;;;;;;;5.95;2.60;;;;;;;;;;5033396;28;20667;-72
2022/07/03 03:46:32;;;;;;;10.57;3.35;;;;;;;;;;5030129;28;20186;-73
2022/07/03 03:48:57;;;;;;;4.40;2.42;;;;;;;;;;5026702;28;20226;-73
2022/07/03 03:51:22;;;;;;;2.75;2.25;;;;;;;;;;5030255;28;21223;-73
2022/07/03 03:53:48;;;;;;;4.93;2.50;;;;;;;;;;5030678;28;20190;-73
2022/07/03 03:56:16;;;;;;;2.45;2.25;;;;;;;;;;5027488;28;20178;-73
2022/07/03 03:58:42;;;;;;;5.20;2.42;;;;;;;;;;5025536;28;20305;-73
2022/07/03 04:01:08;;;;;;;3.15;1.75;;;;;;;;;;5030714;28;20174;-73
2022/07/03 04:03:34;;;;;;;4.38;2.20;;;;;;;;;;5033049;28;20193;-73
2022/07/03 04:05:59;;;;;;;3.42;2.25;;;;;;;;;;5025054;28;20184;-73
2022/07/03 04:08:25;;;;;;;3.85;2.42;;;;;;;;;;5030423;28;20229;-73
2022/07/03 04:10:50;;;;;;;2.20;2.00;;;;;;;;;;5027724;28;20537;-73
2022/07/03 04:13:16;;;;;;;4.75;2.42;;;;;;;;;;5031673;28;20271;-73
2022/07/03 04:15:41;;;;;;;2.90;1.90;;;;;;;;;;5031521;28;20182;-73
2022/07/03 04:18:07;;;;;;;2.92;2.05;;;;;;;;;;5031146;28;20695;-73
2022/07/03 04:20:32;;;;;;;3.75;1.92;;;;;;;;;;5030712;28;21002;-73
2022/07/03 04:22:57;;;;;;;2.38;1.92;;;;;;;;;;5030565;28;20186;-73
2022/07/03 04:25:22;;;;;;;4.65;2.45;;;;;;;;;;5027677;28;20179;-73
2022/07/03 04:27:48;;;;;;;3.45;2.03;;;;;;;;;;5031683;28;20745;-72
2022/07/03 04:30:13;;;;;;;5.75;2.60;;;;;;;;;;5030789;28;20188;-72
2022/07/03 04:32:38;;;;;;;3.85;1.50;;;;;;;;;;5030890;28;20188;-72
2022/07/03 04:35:04;;;;;;;2.97;1.77;;;;;;;;;;5031934;28;20193;-73
2022/07/03 04:37:29;;;;;;;3.97;1.65;;;;;;;;;;5031045;28;20197;-72
2022/07/03 04:39:54;;;;;;;4.10;1.45;;;;;;;;;;5029939;28;20198;-73
2022/07/03 04:42:19;;;;;;;3.38;1.70;;;;;;;;;;5025947;28;20175;-73
2022/07/03 04:44:45;;;;;;;5.07;1.58;;;;;;;;;;5030617;28;20553;-73
2022/07/03 04:47:10;;;;;;;4.22;1.52;;;;;;;;;;5031814;28;20217;-73
2022/07/03 04:49:35;;;;;;;2.05;1.40;;;;;;;;;;5030344;28;20175;-73
2022/07/03 04:52:00;;;;;;;5.03;1.92;;;;;;;;;;5030647;28;20243;-73
2022/07/03 04:54:26;;;;;;;4.03;1.75;;;;;;;;;;5029307;28;20289;-73
2022/07/03 04:56:51;;;;;;;4.50;1.52;;;;;;;;;;5014297;28;20193;-73
2022/07/03 04:59:16;;;;;;;4.85;1.48;;;;;;;;;;5029216;28;20194;-73
2022/07/03 05:01:41;;;;;;;2.90;1.50;;;;;;;;;;5030215;28;20539;-73
2022/07/03 05:04:06;;;;;;;3.83;1.77;;;;;;;;;;5031681;28;20197;-74
2022/07/03 05:06:31;;;;;;;5.28;1.92;;;;;;;;;;5026590;28;20197;-74
2022/07/03 05:08:57;;;;;;;6.30;1.88;;;;;;;;;;5026552;28;20220;-74
2022/07/03 05:11:22;;;;;;;3.67;1.63;;;;;;;;;;5022658;28;20167;-74
2022/07/03 05:13:47;;;;;;;3.30;1.40;;;;;;;;;;5030684;28;20234;-73
2022/07/03 05:16:12;;;;;;;4.35;1.33;;;;;;;;;;5027069;28;20193;-73
2022/07/03 05:18:38;;;;;;;7.93;1.92;;;;;;;;;;5030892;28;20197;-74
2022/07/03 05:21:03;;;;;;;2.53;1.38;;;;;;;;;;5029661;28;20497;-74
2022/07/03 05:23:28;;;;;;;3.95;1.90;;;;;;;;;;5017787;28;20270;-73
2022/07/03 05:25:55;;;;;;;4.28;1.40;;;;;;;;;;5028668;28;20182;-74
2022/07/03 05:28:20;;;;;;;3.17;1.30;;;;;;;;;;5029029;28;20198;-73
2022/07/03 05:30:45;;;;;;;5.28;1.20;;;;;;;;;;5007423;28;20195;-73
2022/07/03 05:33:10;;;;;;;6.22;1.58;;;;;;;;;;5027305;28;20225;-73
2022/07/03 05:35:36;;;;;;;3.00;1.17;;;;;;;;;;5023583;28;20241;-72
2022/07/03 05:38:01;;;;;;;3.60;1.50;;;;;;;;;;5029229;28;20451;-72
2022/07/03 05:40:26;;;;;;;4.55;1.50;;;;;;;;;;5026648;28;20273;-72
2022/07/03 05:42:53;;;;;;;4.72;1.45;;;;;;;;;;5031899;28;20189;-73
2022/07/03 05:45:18;;;;;;;4.85;1.70;;;;;;;;;;5008421;28;20179;-73
2022/07/03 05:47:43;;;;;;;7.47;1.60;;;;;;;;;;5024038;28;20202;-73
2022/07/03 05:50:09;;;;;;;4.38;1.65;;;;;;;;;;5026291;28;20187;-73
2022/07/03 05:52:34;;;;;;;1.85;1.10;;;;;;;;;;5026399;28;20186;-73
2022/07/03 05:54:59;;;;;;;3.15;1.20;;;;;;;;;;5028542;28;20208;-73
2022/07/03 05:57:24;;;;;;;2.43;1.27;;;;;;;;;;5024216;28;20175;-73
2022/07/03 05:59:49;;;;;;;3.75;1.40;;;;;;;;;;5025177;28;20423;-73
2022/07/03 06:02:15;;;;;;;6.05;1.42;;;;;;;;;;5024199;28;20182;-73
2022/07/03 06:04:40;;;;;;;6.85;1.80;;;;;;;;;;5027137;28;20265;-74
2022/07/03 06:07:05;;;;;;;4.30;1.40;;;;;;;;;;5026606;28;20174;-73
2022/07/03 06:09:30;;;;;;;4.25;1.40;;;;;;;;;;5029785;28;20206;-74
2022/07/03 06:11:55;;;;;;;7.78;1.80;;;;;;;;;;5010938;28;20240;-74
2022/07/03 06:14:21;;;;;;;8.60;1.80;;;;;;;;;;5026154;28;20209;-73
2022/07/03 06:16:46;;;;;;;5.27;1.17;;;;;;;;;;5029074;28;20250;-73
2022/07/03 06:19:11;;;;;;;5.15;1.40;;;;;;;;;;5029895;28;20538;-73
2022/07/03 06:21:36;;;;;;;4.47;1.40;;;;;;;;;;5027799;28;20561;-73
2022/07/03 06:24:01;;;;;;;3.35;1.50;;;;;;;;;;5029509;28;20552;-73
2022/07/03 06:26:28;;;;;;;5.07;1.42;;;;;;;;;;5027747;28;20624;-73
2022/07/03 06:28:54;;;;;;;6.70;2.00;;;;;;;;;;5027752;28;20605;-73
2022/07/03 06:31:19;;;;;;;3.47;1.30;;;;;;;;;;5030154;28;20174;-73
2022/07/03 06:33:44;;;;;;;6.25;1.58;;;;;;;;;;5030258;28;20210;-73
2022/07/03 06:36:09;;;;;;;6.00;1.40;;;;;;;;;;5030335;28;20177;-73
2022/07/03 06:38:34;;;;;;;3.42;1.20;;;;;;;;;;5028857;28;20251;-73
2022/07/03 06:41:00;;;;;;;4.57;1.52;;;;;;;;;;5032706;28;20260;-73
2022/07/03 06:43:25;;;;;;;5.75;1.60;;;;;;;;;;5010944;28;20239;-73
2022/07/03 06:45:50;;;;;;;6.03;1.63;;;;;;;;;;5028165;28;20181;-73
2022/07/03 06:48:16;;;;;;;5.75;1.30;;;;;;;;;;5034348;28;20569;-73
2022/07/03 06:50:41;;;;;;;8.07;1.58;;;;;;;;;;5034809;28;20245;-73
2022/07/03 06:53:06;;;;;;;5.72;1.60;;;;;;;;;;5032492;28;20178;-74
2022/07/03 06:55:31;;;;;;;7.40;1.77;;;;;;;;;;5030608;28;20726;-73
2022/07/03 06:57:56;;;;;;;3.67;1.60;;;;;;;;;;5033912;28;20255;-73
2022/07/03 07:00:22;;;;;;;3.37;1.60;;;;;;;;;;5023500;28;20181;-73
2022/07/03 07:02:47;;;;;;;9.63;1.73;;;;;;;;;;5020969;28;20428;-74
2022/07/03 07:05:12;;;;;;;7.38;1.77;;;;;;;;;;5015919;28;20182;-74
2022/07/03 07:07:37;;;;;;;6.10;1.52;;;;;;;;;;5015215;28;20241;-73
2022/07/03 07:10:03;;;;;;;4.03;1.70;;;;;;;;;;5016766;28;20265;-73
2022/07/03 07:12:28;;;;;;;4.70;2.13;;;;;;;;;;5016623;28;20836;-73
2022/07/03 07:14:53;;;;;;;5.07;1.45;;;;;;;;;;5023849;28;20229;-74
2022/07/03 07:17:18;;;;;;;5.07;1.52;;;;;;;;;;5034716;28;20539;-73
2022/07/03 07:19:44;;;;;;;9.00;1.52;;;;;;;;;;5033065;28;20167;-73
2022/07/03 07:22:09;;;;;;;2.35;1.30;;;;;;;;;;5034721;28;20666;-73
2022/07/03 07:24:34;;;;;;;5.70;1.63;;;;;;;;;;5031891;28;20183;-74
2022/07/03 07:26:59;;;;;;;4.85;1.48;;;;;;;;;;5034032;28;20285;-73
2022/07/03 07:29:24;;;;;;;7.00;1.80;;;;;;;;;;5026714;28;20215;-74
2022/07/03 07:31:50;;;;;;;3.83;1.37;;;;;;;;;;5032020;28;20206;-71
2022/07/03 07:34:15;;;;;;;3.10;1.30;;;;;;;;;;5034188;28;20451;-71
2022/07/03 07:36:40;;;;;;;4.63;1.70;;;;;;;;;;5032966;28;20442;-72
2022/07/03 07:39:05;;;;;;;5.82;1.90;;;;;;;;;;5033129;28;20430;-72
2022/07/03 07:41:30;;;;;;;3.97;1.43;;;;;;;;;;5036574;28;20248;-73
2022/07/03 07:43:56;;;;;;;4.20;1.95;;;;;;;;;;5031723;28;20913;-73
2022/07/03 07:46:21;;;;;;;3.30;1.45;;;;;;;;;;5017011;28;20182;-72
2022/07/03 07:48:46;;;;;;;4.60;1.93;;;;;;;;;;5013479;28;20707;-73
2022/07/03 07:51:11;;;;;;;6.03;2.03;;;;;;;;;;5018937;28;20427;-72
2022/07/03 07:53:37;;;;;;;4.55;1.63;;;;;;;;;;5024966;28;20451;-72
2022/07/03 07:56:02;;;;;;;3.05;1.23;;;;;;;;;;5037882;28;20170;-73
2022/07/03 07:58:27;;;;;;;3.88;0.95;;;;;;;;;;5030666;28;20726;-73
2022/07/03 08:06:20;;;;;;;4.20;1.13;;;;;;;;;;5015724;28;20579;-73
2022/07/03 08:08:46;;;;;;;3.08;1.40;;;;;;;;;;5012498;28;20198;-72
2022/07/03 08:11:11;;;;;;;0.95;0.82;;;;;;;;;;5014098;28;20637;-74
2022/07/03 08:13:36;;;;;;;4.87;1.33;;;;;;;;;;5016825;28;20217;-73
2022/07/03 08:16:01;;;;;;;4.18;1.15;;;;;;;;;;5013564;28;20452;-73
2022/07/03 08:18:27;;;;;;;4.88;1.60;;;;;;;;;;5013742;28;20626;-73
2022/07/03 08:20:52;;;;;;;3.65;1.10;;;;;;;;;;5028032;28;20540;-73
2022/07/03 08:23:17;;;;;;;3.42;1.25;;;;;;;;;;5024579;28;20187;-73
2022/07/03 08:25:42;;;;;;;4.40;1.10;;;;;;;;;;5024962;28;20175;-73
2022/07/03 08:28:07;;;;;;;3.93;1.33;;;;;;;;;;5037408;22;20425;-71
2022/07/03 08:30:33;;;;;;;5.00;1.33;;;;;;;;;;5014489;28;20937;-70
2022/07/03 08:32:58;;;;;;;1.52;1.13;;;;;;;;;;5018660;28;20265;-70
2022/07/03 08:35:23;;;;;;;2.50;1.20;;;;;;;;;;5015034;28;20701;-70
2022/07/03 08:37:49;;;;;;;4.82;1.17;;;;;;;;;;5012899;28;20206;-70
2022/07/03 08:40:14;;;;;;;4.30;2.08;;;;;;;;;;5012452;28;20640;-71
2022/07/03 08:42:46;;;;;;;3.40;0.93;;;;;;;;;;5013975;28;20179;-70
2022/07/03 08:45:15;;;;;;;2.75;1.25;;;;;;;;;;5010179;28;20182;-70
2022/07/03 08:47:42;;;;;;;3.72;1.48;;;;;;;;;;5010211;28;20179;-70
2022/07/03 08:50:07;;;;;;;3.40;1.10;;;;;;;;;;5011810;28;20177;-70
2022/07/03 08:52:33;;;;;;;3.50;1.20;;;;;;;;;;5011775;28;20262;-70
2022/07/03 08:54:58;;;;;;;3.22;1.00;;;;;;;;;;5011198;28;20273;-71
2022/07/03 08:57:24;;;;;;;4.27;1.43;;;;;;;;;;5008747;28;20178;-70
2022/07/03 08:59:51;;;;;;;3.92;1.10;;;;;;;;;;4989667;28;20464;-70
2022/07/03 09:02:17;;;;;;;3.13;1.08;;;;;;;;;;5004373;28;20175;-70
2022/07/03 09:04:42;;;;;;;5.30;1.55;;;;;;;;;;5007237;28;20186;-70
2022/07/03 09:07:08;;;;;;;2.75;1.30;;;;;;;;;;5007908;28;20214;-71
2022/07/03 09:09:33;;;;;;;2.42;1.05;;;;;;;;;;5003919;28;20645;-71
2022/07/03 09:11:59;;;;;;;2.70;1.48;;;;;;;;;;5011858;28;20186;-71
2022/07/03 09:14:24;;;;;;;5.10;1.40;;;;;;;;;;5005136;28;20241;-70
2022/07/03 09:16:49;;;;;;;3.97;1.30;;;;;;;;;;5010310;28;20183;-71
2022/07/03 09:19:14;;;;;;;3.53;1.30;;;;;;;;;;5004677;28;20318;-70
2022/07/03 09:21:40;;;;;;;2.77;1.13;;;;;;;;;;5002640;28;20230;-70
2022/07/03 09:24:07;;;;;;;2.13;1.00;;;;;;;;;;4990517;28;20454;-71
2022/07/03 09:26:32;;;;;;;5.05;1.45;;;;;;;;;;5013729;28;20190;-70
2022/07/03 09:28:58;;;;;;;2.80;1.10;;;;;;;;;;5009229;28;20202;-70
2022/07/03 09:31:24;;;;;;;2.17;1.05;;;;;;;;;;5008132;28;20669;-70
2022/07/03 09:33:49;;;;;;;2.25;1.13;;;;;;;;;;5005505;28;20195;-70
2022/07/03 09:36:14;;;;;;;3.77;1.33;;;;;;;;;;5000380;28;20256;-71
2022/07/03 09:38:43;;;;;;;3.60;1.40;;;;;;;;;;5004956;28;20206;-70
2022/07/03 09:41:09;;;;;;;2.22;1.08;;;;;;;;;;5002435;28;20519;-70
2022/07/03 09:43:34;;;;;;;3.80;1.00;;;;;;;;;;4997538;28;20234;-70
2022/07/03 09:46:00;;;;;;;2.40;0.80;;;;;;;;;;5006369;28;21750;-70
2022/07/03 09:48:28;;;;;;;3.60;1.00;;;;;;;;;;5006752;28;20195;-71
2022/07/03 09:51:12;;;;;;;3.42;1.10;;;;;;;;;;5005898;28;20171;-70
2022/07/03 09:53:47;;;;;;;4.07;1.00;;;;;;;;;;4988736;28;20171;-71
2022/07/03 09:56:12;;;;;;;2.10;1.10;;;;;;;;;;5009171;28;20544;-71
2022/07/03 09:58:38;;;;;;;4.90;1.00;;;;;;;;;;5006129;28;20244;-71
2022/07/03 10:01:18;;;;;;;5.03;1.38;;;;;;;;;;5006864;28;20179;-70
2022/07/03 10:03:44;;;;;;;1.70;0.60;;;;;;;;;;5010751;28;20175;-71
2022/07/03 10:06:09;;;;;;;2.87;1.50;;;;;;;;;;5005749;28;20179;-71
2022/07/03 10:08:34;;;;;;;2.08;0.75;;;;;;;;;;5004380;28;20482;-70
2022/07/03 10:11:00;;;;;;;3.00;0.85;;;;;;;;;;5002417;28;20179;-70
2022/07/03 10:13:25;;;;;;;1.80;0.80;;;;;;;;;;5006162;28;20183;-70
2022/07/03 10:15:51;;;;;;;2.80;0.90;;;;;;;;;;5003321;28;20198;-71
2022/07/03 10:18:18;;;;;;;2.80;0.90;;;;;;;;;;5005081;28;20195;-71
2022/07/03 10:20:47;;;;;;;2.78;0.93;;;;;;;;;;5005853;28;20183;-71
2022/07/03 10:23:13;;;;;;;4.60;1.13;;;;;;;;;;5001923;28;20199;-71
2022/07/03 10:25:42;;;;;;;3.22;1.00;;;;;;;;;;5005860;28;20294;-71
2022/07/03 10:28:08;;;;;;;2.65;1.15;;;;;;;;;;5005455;28;20215;-71
2022/07/03 10:30:34;;;;;;;4.18;1.02;;;;;;;;;;5008875;28;20193;-71
2022/07/03 10:32:59;;;;;;;3.75;1.38;;;;;;;;;;5008730;28;20233;-71
2022/07/03 10:35:25;;;;;;;4.43;2.00;;;;;;;;;;5008330;28;20581;-70
2022/07/03 10:37:53;;;;;;;2.83;1.60;;;;;;;;;;5010535;28;20210;-71
2022/07/03 10:46:08;;;;;;;2.13;1.48;;;;;;;;;;5010250;28;20185;-70
2022/07/03 10:48:52;;;;;;;4.68;1.38;;;;;;;;;;5009753;28;20195;-70
2022/07/03 10:51:17;;;;;;;3.75;1.58;;;;;;;;;;5009053;28;20190;-70
2022/07/03 10:53:42;;;;;;;4.17;2.17;;;;;;;;;;4990686;28;20178;-71
2022/07/03 10:56:07;;;;;;;3.15;1.70;;;;;;;;;;5006117;28;20428;-71
2022/07/03 10:58:52;;;;;;;3.08;1.10;;;;;;;;;;5005555;28;20199;-71
2022/07/03 11:01:25;;;;;;;2.60;1.60;;;;;;;;;;5003177;28;20185;-71
2022/07/03 11:03:52;;;;;;;3.70;1.10;;;;;;;;;;5001265;28;20175;-71
2022/07/03 11:06:18;;;;;;;3.78;1.52;;;;;;;;;;5005339;28;20183;-71
2022/07/03 11:09:01;;;;;;;2.33;1.20;;;;;;;;;;5003108;28;20217;-72
2022/07/03 11:11:54;;;;;;;4.13;1.55;;;;;;;;;;5001690;28;20416;-71
2022/07/03 11:14:20;;;;;;;2.38;1.27;;;;;;;;;;5004275;28;20210;-72
2022/07/03 11:16:45;;;;;;;3.00;1.92;;;;;;;;;;5002282;28;20187;-71
2022/07/03 11:19:11;;;;;;;3.70;1.30;;;;;;;;;;4985499;28;20245;-71
2022/07/03 11:21:38;;;;;;;3.78;1.30;;;;;;;;;;5007228;28;20633;-71
2022/07/03 11:24:09;;;;;;;4.38;1.48;;;;;;;;;;5000969;28;20191;-71
2022/07/03 11:26:35;;;;;;;4.93;1.40;;;;;;;;;;4999450;28;20302;-71
2022/07/03 11:29:00;;;;;;;4.95;1.40;;;;;;;;;;5005966;28;20333;-71
2022/07/03 11:31:25;;;;;;;2.63;1.10;;;;;;;;;;5008426;28;20236;-71
2022/07/03 11:33:50;;;;;;;4.97;1.25;;;;;;;;;;5009667;28;20508;-71
2022/07/03 11:36:16;;;;;;;2.83;0.70;;;;;;;;;;5010285;28;20211;-71
2022/07/03 11:38:41;;;;;;;2.07;0.90;;;;;;;;;;5005174;28;20697;-71
2022/07/03 11:41:07;;;;;;;1.30;0.60;;;;;;;;;;4989504;28;20211;-71
2022/07/03 11:43:34;;;;;;;2.20;0.60;;;;;;;;;;5008616;28;20179;-71
2022/07/03 11:45:59;;;;;;;2.92;0.40;;;;;;;;;;5009698;28;20631;-71
2022/07/03 11:48:26;;;;;;;1.33;0.55;;;;;;;;;;5011955;28;20215;-71
2022/07/03 11:50:51;;;;;;;2.83;1.73;;;;;;;;;;5017590;28;20264;-70
2022/07/03 11:53:17;;;;;;;4.57;1.70;;;;;;;;;;5020180;28;20186;-70
2022/07/03 11:55:50;;;;;;;3.25;1.50;;;;;;;;;;5017308;28;20222;-71
2022/07/03 11:58:15;;;;;;;3.10;1.40;;;;;;;;;;5000408;28;20199;-70
2022/07/03 12:00:40;;;;;;;4.30;2.13;;;;;;;;;;5013511;28;20183;-71
2022/07/03 12:03:06;;;;;;;4.75;1.95;;;;;;;;;;5011498;28;20198;-71
2022/07/03 12:05:32;;;;;;;2.72;1.40;;;;;;;;;;5008883;28;20237;-70
2022/07/03 12:08:06;;;;;;;1.73;1.10;;;;;;;;;;4998862;28;20238;-70
2022/07/03 12:10:40;;;;;;;2.08;1.02;;;;;;;;;;4987781;28;20178;-73
2022/07/03 12:13:21;;;;;;;2.15;1.00;;;;;;;;;;5003135;28;20194;-71
2022/07/03 12:15:46;;;;;;;2.20;0.85;;;;;;;;;;5009214;28;20597;-70
2022/07/03 12:18:12;;;;;;;1.33;0.70;;;;;;;;;;5005653;28;20191;-71
2022/07/03 12:20:37;;;;;;;1.98;1.10;;;;;;;;;;4990078;28;20182;-70
2022/07/03 12:23:02;;;;;;;1.47;0.70;;;;;;;;;;5001094;28;20228;-71
2022/07/03 12:25:29;;;;;;;2.60;1.00;;;;;;;;;;5012964;28;20791;-70
2022/07/03 12:27:54;;;;;;;3.53;1.45;;;;;;;;;;5011588;28;20298;-71
2022/07/03 12:30:22;;;;;;;3.23;1.23;;;;;;;;;;5004663;28;20681;-71
2022/07/03 12:32:47;;;;;;;2.40;1.40;;;;;;;;;;5011079;28;20444;-71
2022/07/03 12:35:12;;;;;;;3.45;1.27;;;;;;;;;;4992570;28;20203;-71
2022/07/03 12:37:44;;;;;;;3.67;1.20;;;;;;;;;;5010949;28;20179;-71
2022/07/03 12:40:10;;;;;;;2.70;1.38;;;;;;;;;;5010958;28;20427;-72
2022/07/03 12:42:48;;;;;;;2.30;1.38;;;;;;;;;;5015835;28;20179;-72
2022/07/03 12:45:14;;;;;;;3.45;1.40;;;;;;;;;;5009968;28;20652;-71
2022/07/03 12:47:40;;;;;;;2.28;1.20;;;;;;;;;;5010142;28;20668;-71
2022/07/03 12:50:06;;;;;;;2.80;1.00;;;;;;;;;;5009317;28;20298;-71
2022/07/03 12:52:32;;;;;;;4.60;2.22;;;;;;;;;;5010660;28;20213;-71
2022/07/03 12:54:58;;;;;;;1.73;0.98;;;;;;;;;;5010364;28;20256;-71
2022/07/03 13:00:11;;;;;;;7.45;1.27;;;;;;;;;;5011162;28;20233;-71
2022/07/03 13:02:38;;;;;;;2.90;1.00;;;;;;;;;;4990256;28;20183;-71
2022/07/03 13:05:20;;;;;;;3.65;1.15;;;;;;;;;;5007571;28;20186;-71
2022/07/03 13:07:49;;;;;;;4.20;1.35;;;;;;;;;;5010525;28;20233;-71
2022/07/03 13:10:15;;;;;;;3.72;1.60;;;;;;;;;;5007946;28;20696;-70
2022/07/03 13:12:49;;;;;;;2.28;1.17;;;;;;;;;;4992984;28;20687;-70
2022/07/03 13:15:15;;;;;;;1.48;1.00;;;;;;;;;;5001007;28;20345;-70
2022/07/03 13:17:52;;;;;;;5.00;1.00;;;;;;;;;;5008669;28;20212;-72
2022/07/03 13:20:18;;;;;;;2.63;1.00;;;;;;;;;;4999811;28;20174;-70
2022/07/03 13:22:43;;;;;;;2.88;1.20;;;;;;;;;;5006694;28;20175;-71
2022/07/03 13:25:08;;;;;;;1.77;0.97;;;;;;;;;;5007731;28;20179;-71
2022/07/03 13:27:33;;;;;;;2.67;1.30;;;;;;;;;;4991430;28;20428;-70
2022/07/03 13:29:59;;;;;;;4.10;1.20;;;;;;;;;;4987029;28;20178;-71
2022/07/03 13:32:24;;;;;;;2.17;1.10;;;;;;;;;;4994038;28;20430;-72
2022/07/03 13:34:49;;;;;;;2.03;1.10;;;;;;;;;;5000935;28;20539;-71
2022/07/03 13:37:14;;;;;;;4.53;1.07;;;;;;;;;;4982860;28;20174;-71
2022/07/03 13:39:39;;;;;;;2.47;0.73;;;;;;;;;;5009880;28;20827;-71
2022/07/03 13:42:05;;;;;;;4.23;1.50;;;;;;;;;;5011188;28;20551;-70
2022/07/03 13:44:30;;;;;;;2.88;1.92;;;;;;;;;;5007503;28;20557;-71
2022/07/03 13:46:55;;;;;;;2.55;1.92;;;;;;;;;;5009614;28;20178;-71
2022/07/03 13:49:20;;;;;;;4.40;3.67;;;;;;;;;;5006533;28;20211;-72
2022/07/03 13:51:46;;;;;;;3.97;3.10;;;;;;;;;;4991634;28;20207;-71
2022/07/03 13:54:11;;;;;;;4.03;2.65;;;;;;;;;;5004581;28;20929;-71
2022/07/03 13:56:36;;;;;;;7.63;4.90;;;;;;;;;;5006682;28;20215;-72
2022/07/03 13:59:01;;;;;;;5.83;5.23;;;;;;;;;;5007430;28;20831;-72
2022/07/03 14:01:26;;;;;;;8.20;6.70;;;;;;;;;;5009581;28;20728;-71
2022/07/03 14:03:52;;;;;;;2.78;1.98;;;;;;;;;;5010688;28;20531;-69
2022/07/03 14:06:17;;;;;;;2.60;1.40;;;;;;;;;;5010567;28;20175;-70
2022/07/03 14:08:42;;;;;;;4.55;1.67;;;;;;;;;;5006338;28;20444;-72
2022/07/03 14:11:07;;;;;;;3.83;1.73;;;;;;;;;;5009400;28;20183;-72
2022/07/03 14:13:33;;;;;;;0.82;0.70;;;;;;;;;;5010975;28;20245;-71
2022/07/03 14:15:59;;;;;;;2.83;2.15;;;;;;;;;;5010582;28;20286;-71
2022/07/03 14:18:25;;;;;;;4.95;3.20;;;;;;;;;;5005674;28;20243;-71
2022/07/03 14:20:50;;;;;;;2.50;1.30;;;;;;;;;;5011294;28;20238;-71
2022/07/03 14:23:16;;;;;;;9.90;7.40;;;;;;;;;;4990160;28;20420;-72
2022/07/03 14:25:41;;;;;;;3.63;1.77;;;;;;;;;;5002030;28;20930;-72
2022/07/03 14:33:34;;;;;;;4.40;3.83;;;;;;;;;;5030734;28;20197;-72
2022/07/03 14:35:59;;;;;;;3.03;1.67;;;;;;;;;;5030844;28;20644;-73
2022/07/03 14:38:24;;;;;;;1.90;1.50;;;;;;;;;;5030046;28;20428;-73
2022/07/03 14:40:51;;;;;;;1.50;1.02;;;;;;;;;;5027498;28;20455;-74
2022/07/03 14:43:16;;;;;;;2.22;1.15;;;;;;;;;;5030492;28;20566;-73
2022/07/03 14:45:41;;;;;;;1.37;0.90;;;;;;;;;;5030061;28;20186;-74
2022/07/03 14:48:07;;;;;;;2.10;0.97;;;;;;;;;;5026672;28;20526;-74
2022/07/03 14:50:32;;;;;;;1.95;1.25;;;;;;;;;;5029264;28;20428;-74
2022/07/03 14:52:58;;;;;;;2.65;1.00;;;;;;;;;;5029898;28;20178;-74
2022/07/03 14:55:26;;;;;;;2.97;1.00;;;;;;;;;;5029001;28;20200;-73
2022/07/03 14:57:53;;;;;;;2.63;0.80;;;;;;;;;;5012522;28;20182;-73
2022/07/03 15:00:19;;;;;;;2.15;0.90;;;;;;;;;;5026216;28;20223;-74